Terminal Aerodrome Forecast
Issued by NWS

Home | Current Version | Previous Version | Text Only | Print | Product List | Glossary On
Versions: 1 2 3 4 5 6 7 8 9 10 11 12 13 14 15 16 17 18 19 20 21 22
000
FTUS43 KDVN 241134
TAFCID
TAF
KCID 241134Z 2412/2512 31018G27KT P6SM OVC035
     FM241400 32021G30KT P6SM OVC025
     FM241800 32022G32KT P6SM BKN035
     FM242200 31012G20KT P6SM SCT040
     FM250300 30010KT P6SM SKC
     FM250900 24007KT P6SM BKN100=

USA.gov is the U.S. government's official web portal to all federal, state and local government web resources and services.